createdAt,value
2022-08-26T00:01:39.031Z,17.17
2022-08-26T00:04:13.183Z,17.14
2022-08-26T00:06:46.094Z,17.14
2022-08-26T00:09:19.043Z,17.00
2022-08-26T00:11:51.947Z,17.02
2022-08-26T00:14:28.436Z,17.00
2022-08-26T00:17:03.931Z,16.97
2022-08-26T00:19:38.189Z,16.97
2022-08-26T00:22:10.654Z,16.92
2022-08-26T00:24:47.912Z,16.95
2022-08-26T00:27:20.770Z,17.00
2022-08-26T00:29:53.286Z,16.96
2022-08-26T00:32:25.978Z,16.93
2022-08-26T00:34:59.266Z,16.97
2022-08-26T00:37:33.128Z,16.90
2022-08-26T00:40:07.710Z,16.90
2022-08-26T00:42:46.140Z,16.88
2022-08-26T00:45:18.702Z,16.86
2022-08-26T00:47:55.977Z,16.76
2022-08-26T00:50:31.984Z,16.62
2022-08-26T00:53:32.440Z,16.66
2022-08-26T00:56:09.496Z,16.72
2022-08-26T00:58:47.387Z,16.69
2022-08-26T01:01:23.145Z,16.73
2022-08-26T01:03:56.266Z,16.70
2022-08-26T01:06:30.611Z,16.67
2022-08-26T01:09:03.676Z,16.63
2022-08-26T01:11:36.294Z,16.67
2022-08-26T01:14:11.073Z,16.60
2022-08-26T01:16:44.285Z,16.67
2022-08-26T01:19:23.525Z,16.60
2022-08-26T01:21:59.596Z,16.50
2022-08-26T01:24:32.705Z,16.54
2022-08-26T01:27:12.273Z,16.58
2022-08-26T01:29:46.500Z,16.55
2022-08-26T01:32:21.899Z,16.56
2022-08-26T01:34:56.531Z,16.53
2022-08-26T01:37:34.147Z,16.49
2022-08-26T01:40:13.705Z,16.49
2022-08-26T01:42:46.392Z,16.54
2022-08-26T01:45:24.385Z,16.59
2022-08-26T01:47:59.079Z,16.51
2022-08-26T01:50:35.837Z,16.51
2022-08-26T01:53:12.506Z,16.49
2022-08-26T01:55:49.089Z,16.45
2022-08-26T01:58:26.094Z,16.41
2022-08-26T02:00:59.559Z,16.44
2022-08-26T02:03:33.481Z,16.57
2022-08-26T02:06:11.252Z,16.51
2022-08-26T02:08:48.054Z,16.55
2022-08-26T02:11:23.330Z,16.59
2022-08-26T02:14:01.735Z,16.55
2022-08-26T02:16:39.322Z,16.59
2022-08-26T02:19:17.610Z,16.50
2022-08-26T02:21:52.485Z,16.45
2022-08-26T02:24:28.382Z,16.53
2022-08-26T02:27:01.447Z,16.51
2022-08-26T02:29:37.687Z,16.40
2022-08-26T02:32:13.679Z,16.34
2022-08-26T02:34:50.895Z,16.29
2022-08-26T02:37:23.302Z,16.27
2022-08-26T02:39:55.923Z,16.20
2022-08-26T02:42:30.166Z,16.22
2022-08-26T02:45:03.577Z,16.27
2022-08-26T02:47:37.299Z,16.29
2022-08-26T02:50:10.274Z,16.25
2022-08-26T02:52:42.739Z,16.20
2022-08-26T02:55:16.650Z,16.22
2022-08-26T02:57:49.706Z,16.23
2022-08-26T03:00:22.410Z,16.18
2022-08-26T03:02:57.060Z,16.12
2022-08-26T03:05:29.459Z,16.15
2022-08-26T03:08:02.130Z,16.04
2022-08-26T03:10:34.492Z,16.09
2022-08-26T03:13:08.178Z,15.92
2022-08-26T03:15:41.059Z,15.99
2022-08-26T03:18:13.494Z,16.01
2022-08-26T03:20:45.843Z,16.03
2022-08-26T03:23:18.611Z,15.98
2022-08-26T03:25:52.433Z,16.03
2022-08-26T03:28:27.249Z,16.01
2022-08-26T03:30:59.572Z,16.04
2022-08-26T03:33:32.745Z,16.01
2022-08-26T03:36:07.092Z,15.99
2022-08-26T03:38:39.536Z,15.92
2022-08-26T03:41:11.969Z,15.90
2022-08-26T03:43:47.559Z,15.91
2022-08-26T03:46:20.334Z,15.95
2022-08-26T03:48:53.512Z,15.90
2022-08-26T03:51:26.401Z,15.91
2022-08-26T03:54:00.031Z,15.96
2022-08-26T03:56:32.871Z,15.91
2022-08-26T03:59:07.645Z,15.91
2022-08-26T04:01:40.280Z,15.89
2022-08-26T04:04:15.654Z,15.87
2022-08-26T04:06:48.193Z,15.91
2022-08-26T04:09:20.950Z,15.89
2022-08-26T04:11:54.414Z,15.94
2022-08-26T04:14:28.046Z,15.92
2022-08-26T04:17:01.024Z,15.92
2022-08-26T04:19:33.470Z,16.00
2022-08-26T04:22:06.162Z,15.97
2022-08-26T04:24:39.183Z,15.96
2022-08-26T04:27:11.937Z,16.00
2022-08-26T04:29:45.907Z,16.06
2022-08-26T04:32:20.480Z,16.04
2022-08-26T04:34:52.939Z,16.08
2022-08-26T04:37:25.346Z,16.05
2022-08-26T04:39:58.127Z,16.07
2022-08-26T04:42:32.610Z,16.10
2022-08-26T04:45:10.208Z,16.11
2022-08-26T04:47:43.047Z,16.21
2022-08-26T04:50:18.939Z,16.27
2022-08-26T04:52:56.022Z,16.29
2022-08-26T04:55:38.443Z,16.30
2022-08-26T04:58:14.919Z,16.35
2022-08-26T05:00:49.305Z,16.21
2022-08-26T05:03:22.931Z,16.38
2022-08-26T05:05:55.471Z,16.43
2022-08-26T05:08:27.859Z,16.49
2022-08-26T05:11:04.418Z,16.58
2022-08-26T05:13:38.470Z,16.68
2022-08-26T05:16:13.379Z,16.72
2022-08-26T05:18:46.672Z,16.81
2022-08-26T05:21:21.491Z,16.80
2022-08-26T05:23:54.359Z,16.83
2022-08-26T05:26:29.905Z,16.90
2022-08-26T05:29:02.501Z,16.91
2022-08-26T05:31:36.770Z,16.97
2022-08-26T05:34:09.478Z,17.02
2022-08-26T05:36:41.944Z,17.11
2022-08-26T05:39:14.342Z,17.17
2022-08-26T05:41:46.908Z,17.25
2022-08-26T05:44:20.347Z,17.31
2022-08-26T05:46:55.495Z,17.43
2022-08-26T05:49:27.903Z,17.53
2022-08-26T05:52:00.374Z,17.66
2022-08-26T05:54:34.122Z,17.75
2022-08-26T05:57:06.566Z,17.87
2022-08-26T05:59:39.031Z,17.98
2022-08-26T06:02:12.158Z,18.01
2022-08-26T06:04:46.094Z,18.11
2022-08-26T06:07:38.506Z,18.20
2022-08-26T06:10:31.571Z,18.21
2022-08-26T06:13:11.580Z,18.35
2022-08-26T06:15:46.266Z,18.44
2022-08-26T06:18:22.491Z,18.49
2022-08-26T06:20:57.954Z,18.54
2022-08-26T06:23:48.643Z,18.64
2022-08-26T06:26:21.276Z,18.74
2022-08-26T06:28:54.815Z,18.85
2022-08-26T06:31:27.579Z,18.82
2022-08-26T06:34:07.272Z,18.87
2022-08-26T06:36:44.397Z,19.02
2022-08-26T06:39:17.906Z,19.13
2022-08-26T06:41:50.759Z,19.27
2022-08-26T06:44:23.251Z,19.36
2022-08-26T06:46:55.638Z,19.48
2022-08-26T06:49:29.003Z,19.62
2022-08-26T06:52:02.456Z,19.70
2022-08-26T06:54:36.342Z,19.80
2022-08-26T06:57:12.367Z,19.88
2022-08-26T06:59:47.379Z,19.87
2022-08-26T07:02:23.554Z,19.88
2022-08-26T07:05:01.549Z,19.94
2022-08-26T07:07:34.015Z,19.93
2022-08-26T07:10:08.386Z,19.94
2022-08-26T07:12:40.914Z,20.17
2022-08-26T07:15:13.761Z,20.21
2022-08-26T07:17:47.459Z,20.32
2022-08-26T07:20:20.626Z,20.47
2022-08-26T07:22:53.035Z,20.50
2022-08-26T07:25:25.504Z,20.63
2022-08-26T07:27:57.903Z,20.82
2022-08-26T07:30:30.487Z,21.04
2022-08-26T07:33:03.831Z,21.23
2022-08-26T07:35:37.799Z,21.39
2022-08-26T07:38:10.346Z,21.56
2022-08-26T07:40:42.839Z,21.83
2022-08-26T07:43:15.303Z,21.89
2022-08-26T07:45:47.849Z,22.08
2022-08-26T07:48:21.522Z,22.08
2022-08-26T07:50:54.799Z,22.29
2022-08-26T07:53:27.757Z,22.56
2022-08-26T07:56:01.392Z,22.69
2022-08-26T07:58:33.790Z,22.73
2022-08-26T08:01:07.846Z,22.78
2022-08-26T08:03:40.272Z,22.99
2022-08-26T08:06:13.423Z,23.11
2022-08-26T08:08:45.911Z,23.34
2022-08-26T08:11:20.535Z,23.57
2022-08-26T08:13:56.463Z,23.67
2022-08-26T08:16:32.156Z,23.73
2022-08-26T08:19:05.675Z,24.07
2022-08-26T08:21:39.759Z,24.32
2022-08-26T08:24:12.308Z,24.40
2022-08-26T08:26:45.668Z,24.46
2022-08-26T08:29:18.159Z,24.43
2022-08-26T08:31:56.940Z,24.37
2022-08-26T08:34:30.890Z,24.41
2022-08-26T08:37:08.703Z,24.54
2022-08-26T08:39:43.023Z,24.58
2022-08-26T08:42:37.952Z,24.69
2022-08-26T08:45:14.699Z,24.65
2022-08-26T08:47:54.015Z,24.60
2022-08-26T08:50:30.506Z,24.79
2022-08-26T08:53:12.910Z,24.90
2022-08-26T08:56:06.975Z,25.03
2022-08-26T08:58:51.151Z,25.29
2022-08-26T09:01:41.574Z,25.38
2022-08-26T09:04:42.299Z,25.17
2022-08-26T09:07:18.428Z,25.43
2022-08-26T09:09:56.526Z,25.36
2022-08-26T09:12:33.355Z,25.52
2022-08-26T09:15:16.302Z,26.05
2022-08-26T09:17:55.623Z,26.08
2022-08-26T09:20:40.788Z,26.01
2022-08-26T09:23:13.670Z,26.33
2022-08-26T09:25:49.231Z,26.58
2022-08-26T09:28:24.431Z,26.98
2022-08-26T09:31:11.517Z,27.14
2022-08-26T09:33:44.232Z,27.33
2022-08-26T09:36:22.286Z,27.25
2022-08-26T09:38:54.746Z,27.11
2022-08-26T09:41:31.093Z,27.26
2022-08-26T09:44:14.570Z,27.44
2022-08-26T09:46:54.884Z,27.37
2022-08-26T09:49:35.725Z,27.60
2022-08-26T09:52:17.432Z,27.84
2022-08-26T09:55:01.858Z,27.98
2022-08-26T09:57:45.049Z,27.94
2022-08-26T10:00:29.007Z,28.01
2022-08-26T10:03:04.141Z,27.84
2022-08-26T10:05:41.577Z,27.79
2022-08-26T10:08:23.831Z,27.91
2022-08-26T10:10:58.701Z,27.61
2022-08-26T10:13:35.971Z,27.78
2022-08-26T10:16:14.736Z,27.61
2022-08-26T10:18:59.433Z,27.71
2022-08-26T10:21:36.866Z,27.83
2022-08-26T10:24:15.759Z,27.50
2022-08-26T10:26:59.246Z,27.50
2022-08-26T10:29:39.451Z,27.39
2022-08-26T10:32:19.977Z,27.42
2022-08-26T10:34:52.815Z,27.36
2022-08-26T10:37:33.147Z,27.33
2022-08-26T10:40:12.210Z,27.48
2022-08-26T10:42:49.928Z,27.59
2022-08-26T10:45:26.876Z,27.43
2022-08-26T10:48:05.060Z,27.16
2022-08-26T10:50:41.027Z,27.14
2022-08-26T10:53:25.369Z,27.11
2022-08-26T10:56:05.335Z,26.99
2022-08-26T10:59:00.749Z,27.12
2022-08-26T11:01:42.404Z,27.36
2022-08-26T11:04:34.921Z,27.40
2022-08-26T11:07:36.874Z,27.44
2022-08-26T11:10:26.287Z,27.59
2022-08-26T11:13:00.848Z,27.47
2022-08-26T11:16:09.081Z,27.31
2022-08-26T11:18:45.521Z,27.64
2022-08-26T11:22:04.409Z,27.53
2022-08-26T11:25:01.064Z,27.59
2022-08-26T11:27:54.098Z,27.96
2022-08-26T11:30:49.129Z,28.35
2022-08-26T11:33:47.987Z,28.20
2022-08-26T11:36:57.492Z,28.18
2022-08-26T11:39:36.638Z,28.53
2022-08-26T11:42:31.803Z,28.89
2022-08-26T11:45:17.543Z,28.99
2022-08-26T11:47:49.986Z,29.34
2022-08-26T11:50:25.520Z,29.65
2022-08-26T11:53:03.702Z,29.29
2022-08-26T11:55:41.774Z,29.55
2022-08-26T11:58:15.475Z,29.63
2022-08-26T12:00:51.626Z,29.39
2022-08-26T12:03:30.951Z,29.64
2022-08-26T12:06:14.247Z,29.83
2022-08-26T12:08:47.231Z,30.03
2022-08-26T12:11:24.167Z,29.91
2022-08-26T12:13:58.724Z,29.80
2022-08-26T12:16:36.122Z,29.55
2022-08-26T12:19:21.585Z,29.66
2022-08-26T12:22:01.968Z,29.67
2022-08-26T12:24:35.542Z,29.24
2022-08-26T12:27:16.112Z,29.16
2022-08-26T12:30:02.380Z,29.23
2022-08-26T12:32:38.363Z,29.18
2022-08-26T12:35:30.615Z,28.88
2022-08-26T12:38:07.820Z,28.61
2022-08-26T12:40:43.204Z,28.70
2022-08-26T12:43:37.671Z,28.75
2022-08-26T12:46:12.459Z,29.00
2022-08-26T12:48:48.785Z,29.14
2022-08-26T12:51:26.491Z,28.84
2022-08-26T12:54:01.583Z,28.73
2022-08-26T12:56:38.035Z,28.37
2022-08-26T12:59:22.459Z,28.27
2022-08-26T13:01:55.055Z,28.44
2022-08-26T13:04:37.490Z,28.51
2022-08-26T13:07:19.842Z,28.26
2022-08-26T13:09:54.494Z,28.18
2022-08-26T13:12:30.183Z,28.20
2022-08-26T13:15:04.572Z,28.06
2022-08-26T13:17:38.504Z,27.75
2022-08-26T13:20:10.878Z,27.50
2022-08-26T13:22:43.315Z,27.70
2022-08-26T13:25:19.779Z,27.81
2022-08-26T13:27:52.365Z,27.90
2022-08-26T13:30:24.743Z,28.03
2022-08-26T13:32:59.987Z,28.13
2022-08-26T13:35:34.587Z,28.04
2022-08-26T13:38:13.902Z,28.13
2022-08-26T13:40:58.947Z,28.30
2022-08-26T13:43:31.934Z,28.15
2022-08-26T13:46:04.616Z,28.20
2022-08-26T13:48:37.539Z,27.87
2022-08-26T13:51:13.447Z,27.77
2022-08-26T13:53:45.915Z,27.68
2022-08-26T13:56:19.679Z,27.76
2022-08-26T13:58:53.033Z,27.55
2022-08-26T14:01:26.199Z,27.74
2022-08-26T14:03:58.902Z,27.77
2022-08-26T14:06:31.455Z,27.87
2022-08-26T14:09:04.267Z,27.90
2022-08-26T14:11:41.227Z,27.80
2022-08-26T14:14:27.156Z,27.47
2022-08-26T14:17:00.498Z,27.45
2022-08-26T14:19:33.207Z,27.46
2022-08-26T14:22:05.677Z,27.36
2022-08-26T14:24:38.047Z,27.45
2022-08-26T14:27:11.906Z,27.44
2022-08-26T14:29:44.326Z,27.43
2022-08-26T14:32:22.372Z,27.29
2022-08-26T14:34:55.707Z,27.32
2022-08-26T14:37:28.135Z,27.38
2022-08-26T14:40:00.687Z,27.42
2022-08-26T14:42:33.760Z,27.46
2022-08-26T14:45:10.674Z,27.36
2022-08-26T14:47:43.272Z,27.46
2022-08-26T14:50:17.796Z,27.41
2022-08-26T14:53:08.631Z,27.48
2022-08-26T14:55:42.033Z,27.56
2022-08-26T14:58:15.072Z,27.61
2022-08-26T15:00:47.541Z,27.61
2022-08-26T15:03:19.906Z,27.64
2022-08-26T15:05:52.313Z,27.56
2022-08-26T15:08:24.704Z,27.49
2022-08-26T15:10:57.098Z,27.48
2022-08-26T15:13:30.230Z,27.44
2022-08-26T15:16:03.373Z,27.40
2022-08-26T15:18:35.831Z,27.34
2022-08-26T15:21:08.326Z,27.20
2022-08-26T15:23:41.000Z,27.16
2022-08-26T15:26:22.365Z,27.08
2022-08-26T15:28:55.707Z,27.00
2022-08-26T15:31:30.783Z,26.84
2022-08-26T15:34:07.402Z,26.84
2022-08-26T15:36:41.913Z,26.79
2022-08-26T15:39:15.709Z,26.81
2022-08-26T15:41:48.275Z,26.78
2022-08-26T15:44:21.990Z,26.72
2022-08-26T15:46:58.372Z,26.71
2022-08-26T15:49:31.040Z,26.66
2022-08-26T15:52:05.390Z,26.62
2022-08-26T15:54:38.881Z,26.58
2022-08-26T15:57:12.321Z,26.49
2022-08-26T15:59:46.622Z,26.53
2022-08-26T16:02:19.042Z,26.47
2022-08-26T16:04:51.483Z,26.43
2022-08-26T16:07:23.862Z,26.39
2022-08-26T16:09:56.735Z,26.36
2022-08-26T16:12:29.074Z,26.41
2022-08-26T16:15:02.322Z,26.30
2022-08-26T16:17:34.738Z,26.14
2022-08-26T16:20:08.723Z,26.09
2022-08-26T16:22:41.171Z,26.05
2022-08-26T16:25:13.549Z,26.00
2022-08-26T16:27:45.991Z,25.95
2022-08-26T16:30:21.644Z,25.91
2022-08-26T16:32:54.928Z,25.87
2022-08-26T16:35:27.323Z,25.74
2022-08-26T16:37:59.715Z,25.67
2022-08-26T16:40:32.779Z,25.66
2022-08-26T16:43:05.398Z,25.62
2022-08-26T16:45:39.967Z,25.52
2022-08-26T16:48:14.871Z,25.45
2022-08-26T16:50:47.254Z,25.34
2022-08-26T16:53:19.610Z,25.24
2022-08-26T16:55:52.012Z,25.18
2022-08-26T16:58:24.369Z,25.09
2022-08-26T17:00:57.421Z,24.93
2022-08-26T17:03:29.820Z,24.74
2022-08-26T17:06:02.187Z,24.48
2022-08-26T17:08:36.032Z,24.36
2022-08-26T17:11:08.532Z,24.20
2022-08-26T17:13:41.227Z,23.98
2022-08-26T17:16:15.917Z,23.85
2022-08-26T17:18:48.423Z,23.74
2022-08-26T17:21:20.834Z,23.65
2022-08-26T17:23:54.107Z,23.61
2022-08-26T17:26:27.019Z,23.50
2022-08-26T17:28:59.672Z,23.39
2022-08-26T17:31:34.300Z,23.31
2022-08-26T17:34:06.758Z,23.22
2022-08-26T17:36:39.162Z,23.11
2022-08-26T17:39:11.555Z,23.01
2022-08-26T17:41:44.038Z,22.86
2022-08-26T17:44:16.694Z,22.79
2022-08-26T17:46:49.906Z,22.69
2022-08-26T17:49:22.395Z,22.51
2022-08-26T17:51:58.086Z,22.36
2022-08-26T17:54:31.690Z,22.13
2022-08-26T17:57:04.638Z,22.02
2022-08-26T17:59:43.064Z,21.94
2022-08-26T18:02:16.520Z,21.80
2022-08-26T18:04:49.388Z,21.78
2022-08-26T18:07:21.806Z,21.73
2022-08-26T18:09:54.271Z,21.78
2022-08-26T18:12:27.054Z,21.80
2022-08-26T18:15:01.891Z,21.81
2022-08-26T18:17:35.361Z,21.87
2022-08-26T18:20:10.486Z,21.79
2022-08-26T18:22:44.147Z,21.86
2022-08-26T18:25:18.270Z,21.94
2022-08-26T18:27:50.715Z,22.00
2022-08-26T18:30:23.348Z,22.03
2022-08-26T18:32:56.426Z,21.91
2022-08-26T18:35:29.666Z,21.78
2022-08-26T18:38:11.398Z,21.73
2022-08-26T18:40:45.293Z,21.71
2022-08-26T18:43:17.706Z,21.71
2022-08-26T18:46:00.179Z,21.73
2022-08-26T18:48:33.683Z,21.74
2022-08-26T18:51:06.843Z,21.76
2022-08-26T18:53:42.075Z,21.75
2022-08-26T18:56:16.702Z,21.67
2022-08-26T18:58:51.035Z,21.64
2022-08-26T19:01:27.419Z,21.65
2022-08-26T19:04:02.340Z,21.62
2022-08-26T19:06:35.622Z,21.62
2022-08-26T19:09:10.673Z,21.62
2022-08-26T19:11:45.807Z,21.61
2022-08-26T19:14:18.906Z,21.50
2022-08-26T19:16:52.633Z,21.36
2022-08-26T19:19:25.732Z,21.34
2022-08-26T19:21:58.200Z,21.19
2022-08-26T19:24:30.701Z,21.07
2022-08-26T19:27:03.187Z,20.92
2022-08-26T19:29:35.796Z,20.86
2022-08-26T19:32:08.488Z,20.87
2022-08-26T19:34:41.715Z,20.79
2022-08-26T19:37:14.226Z,20.78
2022-08-26T19:39:46.912Z,20.74
2022-08-26T19:42:19.352Z,20.69
2022-08-26T19:45:24.473Z,20.64
2022-08-26T19:47:58.100Z,20.59
2022-08-26T19:50:33.351Z,20.57
2022-08-26T19:53:05.769Z,20.50
2022-08-26T19:55:38.513Z,20.53
2022-08-26T19:58:11.619Z,20.55
2022-08-26T20:00:44.127Z,20.45
2022-08-26T20:03:16.551Z,20.30
2022-08-26T20:05:49.615Z,20.21
2022-08-26T20:08:22.763Z,20.10
2022-08-26T20:10:55.281Z,20.01
2022-08-26T20:13:28.027Z,19.92
2022-08-26T20:16:00.509Z,19.72
2022-08-26T20:18:50.938Z,19.65
2022-08-26T20:21:27.070Z,19.42
2022-08-26T20:24:02.658Z,19.32
2022-08-26T20:26:38.037Z,19.23
2022-08-26T20:29:12.470Z,19.16
2022-08-26T20:31:45.294Z,19.22
2022-08-26T20:34:18.819Z,19.25
2022-08-26T20:36:52.242Z,19.38
2022-08-26T20:39:28.101Z,19.37
2022-08-26T20:42:00.518Z,19.38
2022-08-26T20:44:33.015Z,19.38
2022-08-26T20:47:05.638Z,19.36
2022-08-26T20:49:38.171Z,19.43
2022-08-26T20:52:11.698Z,19.49
2022-08-26T20:54:44.114Z,19.47
2022-08-26T20:57:16.781Z,19.22
2022-08-26T20:59:49.600Z,19.07
2022-08-26T21:02:22.002Z,19.12
2022-08-26T21:04:54.482Z,19.10
2022-08-26T21:07:27.919Z,19.14
2022-08-26T21:10:00.751Z,19.06
2022-08-26T21:12:33.159Z,19.17
2022-08-26T21:15:06.979Z,19.17
2022-08-26T21:17:39.360Z,19.29
2022-08-26T21:20:11.778Z,19.41
2022-08-26T21:22:44.839Z,19.47
2022-08-26T21:25:17.542Z,19.42
2022-08-26T21:27:49.894Z,19.41
2022-08-26T21:30:22.497Z,19.37
2022-08-26T21:32:54.822Z,19.51
2022-08-26T21:35:27.386Z,19.60
2022-08-26T21:38:00.495Z,19.64
2022-08-26T21:40:32.957Z,19.62
2022-08-26T21:43:05.322Z,19.59
2022-08-26T21:45:39.533Z,19.61
2022-08-26T21:48:11.915Z,19.58
2022-08-26T21:50:44.487Z,19.57
2022-08-26T21:53:17.598Z,19.53
2022-08-26T21:55:50.006Z,19.51
2022-08-26T21:58:22.631Z,19.50
2022-08-26T22:00:55.097Z,19.47
2022-08-26T22:03:27.908Z,19.44
2022-08-26T22:06:04.102Z,19.36
2022-08-26T22:08:39.187Z,19.29
2022-08-26T22:11:12.550Z,19.23
2022-08-26T22:13:45.853Z,19.14
2022-08-26T22:16:19.256Z,19.10
2022-08-26T22:18:52.802Z,19.04
2022-08-26T22:21:27.302Z,18.95
2022-08-26T22:24:00.329Z,18.91
2022-08-26T22:26:33.259Z,18.85
2022-08-26T22:29:06.715Z,18.83
2022-08-26T22:31:39.431Z,18.79
2022-08-26T22:34:16.526Z,18.70
2022-08-26T22:36:50.107Z,18.56
2022-08-26T22:39:25.354Z,18.45
2022-08-26T22:41:57.934Z,18.36
2022-08-26T22:44:31.183Z,18.31
2022-08-26T22:47:03.642Z,18.28
2022-08-26T22:49:36.035Z,18.16
2022-08-26T22:52:08.611Z,18.15
2022-08-26T22:54:41.664Z,18.11
2022-08-26T22:57:14.083Z,18.04
2022-08-26T22:59:46.693Z,18.05
2022-08-26T23:02:19.120Z,17.94
2022-08-26T23:04:51.654Z,17.88
2022-08-26T23:07:24.057Z,17.89
2022-08-26T23:09:57.139Z,17.85
2022-08-26T23:12:30.741Z,17.77
2022-08-26T23:15:04.010Z,17.79
2022-08-26T23:17:37.566Z,17.73
2022-08-26T23:20:12.058Z,17.67
2022-08-26T23:22:44.506Z,17.68
2022-08-26T23:25:17.644Z,17.62
2022-08-26T23:27:50.530Z,17.55
2022-08-26T23:30:25.879Z,17.44
2022-08-26T23:32:58.558Z,17.39
2022-08-26T23:35:30.680Z,17.35
2022-08-26T23:38:03.331Z,17.32
2022-08-26T23:40:37.901Z,17.24
2022-08-26T23:43:11.087Z,17.25
2022-08-26T23:45:43.540Z,17.27
2022-08-26T23:48:15.958Z,17.25
2022-08-26T23:51:09.757Z,17.20
2022-08-26T23:53:42.641Z,17.06
2022-08-26T23:56:18.642Z,16.96
2022-08-26T23:58:51.112Z,16.93
